Terminal Aerodrome Forecast
Issued by NWS Cleveland, OH

Home | Current Version | Previous Version | Graphics & Text | Print | Product List | Glossary On
Versions: 1 2 3 4 5 6 7 8 9 10 11 12 13 14 15 16 17 18 19 20 21 22 23 24 25 26 27
000
FTUS41 KCLE 221500 AAB
TAFMFD
TAF AMD
KMFD 221559Z 2216/2312 15008KT 6SM HZ OVC040
     FM222200 16008KT P6SM OVC025
     FM230700 15012KT 5SM BR VCSH SCT008 OVC015
      TEMPO 2309/2312 3SM -RA BR BKN008 OVC012=

USA.gov is the U.S. government's official web portal to all federal, state and local government web resources and services.